| time (UTC) | temp C | wind direction | speed KPH | gust KPH | rain 1hr cm | rain 24hr cm | rain mn cm | humidity % | barometer mb |
| 20260508033503 | 8 | 218 | 1.6 | 6.4 | 0.00 | 0.10 | 0.10 | 45 | 1033.3 |
| 20260508033218 | 8 | 244 | 1.6 | 6.4 | 0.00 | 0.10 | 0.10 | 45 | 1033.3 |
| 20260508032503 | 8 | 287 | 4.8 | 14.5 | 0.00 | 0.10 | 0.10 | 43 | 1033.2 |
| 20260508032003 | 8 | 307 | 4.8 | 20.9 | 0.00 | 0.10 | 0.10 | 43 | 1033.1 |
| 20260508031503 | 8 | 314 | 6.4 | 20.9 | 0.00 | 0.10 | 0.10 | 43 | 1033.1 |
| 20260508031003 | 8 | 320 | 6.4 | 19.3 | 0.00 | 0.10 | 0.10 | 43 | 1033.0 |
| 20260508030503 | 8 | 12 | 4.8 | 16.1 | 0.00 | 0.10 | 0.10 | 43 | 1032.9 |
| 20260508030221 | 8 | 67 | 3.2 | 16.1 | 0.00 | 0.10 | 0.10 | 44 | 1032.9 |
| 20260508025503 | 8 | 273 | 1.6 | 9.7 | 0.00 | 0.10 | 0.10 | 44 | 1032.7 |
| 20260508025003 | 8 | 265 | 1.6 | 4.8 | 0.00 | 0.10 | 0.10 | 43 | 1032.6 |
| 20260508024503 | 8 | 89 | 1.6 | 8.0 | 0.00 | 0.10 | 0.10 | 43 | 1032.5 |
| 20260508024218 | 8 | 77 | 1.6 | 8.0 | 0.00 | 0.10 | 0.10 | 43 | 1032.5 |
| 20260508023503 | 8 | 76 | 1.6 | 4.8 | 0.00 | 0.10 | 0.10 | 42 | 1032.4 |
| 20260508023003 | 8 | 293 | 1.6 | 4.8 | 0.00 | 0.10 | 0.10 | 41 | 1032.5 |
| 20260508022503 | 9 | 304 | 3.2 | 12.9 | 0.00 | 0.10 | 0.10 | 40 | 1032.4 |
| 20260508022003 | 9 | 318 | 4.8 | 14.5 | 0.00 | 0.10 | 0.10 | 40 | 1032.3 |
| 20260508021503 | 9 | 317 | 4.8 | 14.5 | 0.00 | 0.10 | 0.10 | 40 | 1032.3 |
| 20260508021003 | 9 | 321 | 4.8 | 14.5 | 0.00 | 0.10 | 0.10 | 40 | 1032.3 |
| 20260508020503 | 9 | 335 | 4.8 | 14.5 | 0.00 | 0.10 | 0.10 | 40 | 1032.3 |
| 20260508020004 | 8 | 335 | 3.2 | 8.0 | 0.00 | 0.10 | 0.10 | 40 | 1032.3 |
| 20260508015503 | 8 | 331 | 1.6 | 6.4 | 0.00 | 0.10 | 0.10 | 43 | 1032.2 |
| 20260508015217 | 8 | 330 | 3.2 | 8.0 | 0.00 | 0.10 | 0.10 | 40 | 1032.1 |
| 20260508014720 | 8 | 303 | 3.2 | 11.3 | 0.00 | 0.10 | 0.10 | 42 | 1032.2 |
| 20260508014003 | 9 | 305 | 3.2 | 8.0 | 0.00 | 0.10 | 0.10 | 39 | 1032.2 |
| 20260508013503 | 10 | 298 | 3.2 | 11.3 | 0.00 | 0.10 | 0.10 | 40 | 1032.1 |
| 20260508013003 | 10 | 287 | 4.8 | 14.5 | 0.00 | 0.10 | 0.10 | 37 | 1032.0 |
| 20260508012503 | 10 | 295 | 6.4 | 14.5 | 0.00 | 0.10 | 0.10 | 35 | 1032.1 |
| 20260508012220 | 10 | 296 | 6.4 | 14.5 | 0.00 | 0.10 | 0.10 | 36 | 1032.1 |
| 20260508011718 | 10 | 306 | 6.4 | 19.3 | 0.00 | 0.10 | 0.10 | 35 | 1032.0 |
| 20260508011003 | 11 | 308 | 6.4 | 14.5 | 0.00 | 0.10 | 0.10 | 35 | 1032.0 |
| 20260508010503 | 11 | 309 | 8.0 | 20.9 | 0.00 | 0.10 | 0.10 | 34 | 1031.9 |
| 20260508010217 | 11 | 310 | 8.0 | 20.9 | 0.00 | 0.10 | 0.10 | 34 | 1031.9 |
| 20260508005503 | 11 | 316 | 6.4 | 12.9 | 0.00 | 0.13 | 0.10 | 34 | 1031.8 |
| 20260508005003 | 11 | 318 | 4.8 | 12.9 | 0.00 | 0.13 | 0.10 | 35 | 1032.0 |
| 20260508004503 | 11 | 301 | 4.8 | 12.9 | 0.00 | 0.13 | 0.10 | 35 | 1031.9 |
| 20260508004219 | 11 | 296 | 6.4 | 24.1 | 0.00 | 0.13 | 0.10 | 38 | 1031.9 |
| 20260508003722 | 11 | 304 | 6.4 | 24.1 | 0.00 | 0.13 | 0.10 | 35 | 1032.0 |
| 20260508003220 | 11 | 313 | 3.2 | 24.1 | 0.00 | 0.13 | 0.10 | 37 | 1032.1 |
| 20260508002503 | 11 | 309 | 3.2 | 9.7 | 0.00 | 0.15 | 0.10 | 39 | 1032.1 |
| 20260508002003 | 11 | 281 | 4.8 | 17.7 | 0.00 | 0.15 | 0.10 | 39 | 1032.0 |
| 20260508001503 | 11 | 290 | 8.0 | 24.1 | 0.00 | 0.15 | 0.10 | 41 | 1032.0 |
| 20260508001217 | 11 | 300 | 8.0 | 24.1 | 0.00 | 0.15 | 0.10 | 38 | 1032.0 |
| 20260508000720 | 11 | 289 | 8.0 | 19.3 | 0.00 | 0.18 | 0.10 | 39 | 1032.1 |
| 20260508000003 | 11 | 261 | 8.0 | 17.7 | 0.00 | 0.18 | 0.10 | 37 | 1032.0 |
| 20260507235503 | 11 | 264 | 8.0 | 17.7 | 0.00 | 0.18 | 0.10 | 39 | 1032.0 |
| 20260507235003 | 11 | 269 | 8.0 | 17.7 | 0.00 | 0.18 | 0.10 | 40 | 1032.1 |
| 20260507234503 | 11 | 283 | 8.0 | 17.7 | 0.00 | 0.18 | 0.10 | 38 | 1032.1 |
| 20260507234003 | 12 | 284 | 9.7 | 24.1 | 0.00 | 0.18 | 0.10 | 38 | 1031.9 |
| 20260507233717 | 12 | 280 | 8.0 | 24.1 | 0.00 | 0.20 | 0.10 | 38 | 1031.9 |
| 20260507233220 | 12 | 272 | 8.0 | 17.7 | 0.00 | 0.20 | 0.10 | 38 | 1032.0 |
| 20260507232503 | 11 | 265 | 6.4 | 19.3 | 0.00 | 0.20 | 0.10 | 40 | 1031.9 |
| 20260507232003 | 11 | 264 | 6.4 | 17.7 | 0.00 | 0.20 | 0.10 | 39 | 1031.9 |
| 20260507231503 | 11 | 289 | 8.0 | 19.3 | 0.00 | 0.23 | 0.10 | 40 | 1032.1 |
| 20260507231003 | 11 | 316 | 9.7 | 25.7 | 0.00 | 0.23 | 0.10 | 42 | 1031.9 |
| 20260507230503 | 10 | 316 | 9.7 | 25.7 | 0.00 | 0.23 | 0.10 | 42 | 1031.9 |
| 20260507230003 | 10 | 318 | 9.7 | 25.7 | 0.00 | 0.23 | 0.10 | 44 | 1031.9 |
| 20260507225503 | 10 | 320 | 11.3 | 27.4 | 0.00 | 0.23 | 0.10 | 42 | 1031.9 |
| 20260507225219 | 10 | 319 | 11.3 | 27.4 | 0.00 | 0.23 | 0.10 | 42 | 1031.9 |
| 20260507224717 | 10 | 304 | 9.7 | 27.4 | 0.00 | 0.25 | 0.10 | 40 | 1032.0 |
| 20260507224220 | 11 | 291 | 8.0 | 20.9 | 0.00 | 0.25 | 0.10 | 41 | 1032.0 |
| 20260507223503 | 11 | 312 | 8.0 | 32.2 | 0.00 | 0.25 | 0.10 | 40 | 1032.0 |
| 20260507223003 | 11 | 282 | 6.4 | 24.1 | 0.00 | 0.25 | 0.10 | 41 | 1032.0 |
| 20260507222503 | 11 | 284 | 9.7 | 24.1 | 0.00 | 0.28 | 0.10 | 40 | 1031.9 |
| 20260507222003 | 11 | 311 | 9.7 | 22.5 | 0.00 | 0.28 | 0.10 | 40 | 1031.9 |
| 20260507221504 | 11 | 314 | 9.7 | 22.5 | 0.00 | 0.28 | 0.10 | 41 | 1032.0 |
| 20260507221004 | 11 | 311 | 9.7 | 22.5 | 0.00 | 0.30 | 0.10 | 42 | 1032.1 |
| 20260507220721 | 10 | 315 | 11.3 | 22.5 | 0.00 | 0.30 | 0.10 | 42 | 1032.1 |
| 20260507220004 | 10 | 315 | 9.7 | 20.9 | 0.00 | 0.33 | 0.10 | 41 | 1032.2 |
| 20260507215717 | 11 | 312 | 9.7 | 20.9 | 0.00 | 0.33 | 0.10 | 40 | 1032.2 |
| 20260507215003 | 11 | 309 | 11.3 | 24.1 | 0.00 | 0.36 | 0.10 | 41 | 1032.3 |
| 20260507214503 | 11 | 303 | 11.3 | 25.7 | 0.00 | 0.38 | 0.10 | 38 | 1032.4 |
| 20260507214003 | 12 | 263 | 8.0 | 25.7 | 0.00 | 0.38 | 0.10 | 39 | 1032.4 |
| 20260507213503 | 11 | 217 | 4.8 | 16.1 | 0.00 | 0.41 | 0.10 | 39 | 1032.4 |
| 20260507213003 | 11 | 165 | 4.8 | 14.5 | 0.00 | 0.43 | 0.10 | 41 | 1032.4 |
| 20260507212503 | 11 | 156 | 6.4 | 16.1 | 0.00 | 0.43 | 0.10 | 40 | 1032.5 |
| 20260507212003 | 11 | 204 | 6.4 | 22.5 | 0.00 | 0.46 | 0.10 | 42 | 1032.6 |
| 20260507211503 | 11 | 259 | 6.4 | 22.5 | 0.00 | 0.48 | 0.10 | 39 | 1032.7 |
| 20260507211003 | 11 | 272 | 4.8 | 19.3 | 0.00 | 0.48 | 0.10 | 38 | 1032.7 |
| 20260507210716 | 11 | 274 | 3.2 | 9.7 | 0.00 | 0.51 | 0.10 | 40 | 1032.7 |
| 20260507210003 | 11 | 286 | 3.2 | 9.7 | 0.00 | 0.53 | 0.10 | 43 | 1032.9 |
| 20260507205503 | 11 | 317 | 4.8 | 16.1 | 0.00 | 0.56 | 0.10 | 41 | 1033.0 |
| 20260507205220 | 11 | 281 | 6.4 | 16.1 | 0.00 | 0.56 | 0.10 | 39 | 1033.0 |
| 20260507204503 | 11 | 256 | 6.4 | 16.1 | 0.00 | 0.58 | 0.10 | 40 | 1033.1 |
| 20260507204003 | 11 | 291 | 6.4 | 17.7 | 0.00 | 0.61 | 0.10 | 41 | 1033.1 |
| 20260507203503 | 10 | 289 | 6.4 | 17.7 | 0.00 | 0.64 | 0.10 | 42 | 1033.2 |
| 20260507203003 | 10 | 265 | 6.4 | 19.3 | 0.00 | 0.64 | 0.10 | 41 | 1033.3 |
| 20260507202503 | 10 | 273 | 6.4 | 19.3 | 0.00 | 0.64 | 0.10 | 41 | 1033.4 |
| 20260507202003 | 11 | 180 | 4.8 | 14.5 | 0.00 | 0.66 | 0.10 | 40 | 1033.3 |
| 20260507201503 | 10 | 145 | 4.8 | 14.5 | 0.00 | 0.66 | 0.10 | 41 | 1033.4 |
| 20260507201003 | 10 | 162 | 3.2 | 14.5 | 0.00 | 0.69 | 0.10 | 45 | 1033.4 |
| 20260507200503 | 10 | 274 | 3.2 | 14.5 | 0.00 | 0.69 | 0.10 | 46 | 1033.4 |
| 20260507200003 | 9 | 271 | 4.8 | 14.5 | 0.00 | 0.69 | 0.10 | 42 | 1033.4 |
| 20260507195503 | 9 | 269 | 4.8 | 14.5 | 0.00 | 0.71 | 0.10 | 41 | 1033.5 |
| 20260507195221 | 10 | 282 | 4.8 | 11.3 | 0.00 | 0.71 | 0.10 | 43 | 1033.5 |
| 20260507194503 | 9 | 264 | 6.4 | 12.9 | 0.00 | 0.74 | 0.10 | 42 | 1033.6 |
| 20260507194003 | 9 | 257 | 4.8 | 12.9 | 0.00 | 0.74 | 0.10 | 41 | 1033.7 |
| 20260507193503 | 9 | 236 | 6.4 | 14.5 | 0.00 | 0.74 | 0.10 | 42 | 1033.6 |
| 20260507193003 | 9 | 242 | 6.4 | 14.5 | 0.00 | 0.76 | 0.10 | 40 | 1033.7 |
| 20260507192503 | 9 | 241 | 4.8 | 14.5 | 0.00 | 0.76 | 0.10 | 42 | 1033.7 |
| 20260507192003 | 8 | 242 | 4.8 | 11.3 | 0.00 | 0.76 | 0.10 | 42 | 1033.7 |
| 20260507191503 | 8 | 262 | 4.8 | 16.1 | 0.00 | 0.76 | 0.10 | 41 | 1033.8 |
| 20260507191003 | 8 | 273 | 8.0 | 16.1 | 0.00 | 0.79 | 0.10 | 42 | 1033.8 |
| 20260507190503 | 8 | 279 | 6.4 | 16.1 | 0.00 | 0.79 | 0.10 | 42 | 1033.9 |
| 20260507190004 | 8 | 276 | 4.8 | 11.3 | 0.00 | 0.79 | 0.10 | 43 | 1034.0 |
| 20260507185503 | 8 | 262 | 6.4 | 16.1 | 0.00 | 0.79 | 0.10 | 45 | 1034.0 |
| 20260507185003 | 8 | 260 | 6.4 | 16.1 | 0.00 | 0.79 | 0.10 | 42 | 1034.0 |
| 20260507184503 | 8 | 273 | 4.8 | 14.5 | 0.00 | 0.79 | 0.10 | 44 | 1034.0 |
| 20260507184218 | 7 | 273 | 6.4 | 14.5 | 0.00 | 0.79 | 0.10 | 44 | 1034.0 |
| 20260507183503 | 7 | 274 | 4.8 | 12.9 | 0.00 | 0.81 | 0.10 | 42 | 1034.1 |
| 20260507183003 | 7 | 265 | 4.8 | 12.9 | 0.00 | 0.81 | 0.10 | 45 | 1034.1 |
| 20260507182717 | 7 | 265 | 6.4 | 16.1 | 0.00 | 0.81 | 0.10 | 47 | 1034.1 |
| 20260507182003 | 7 | 281 | 8.0 | 16.1 | 0.00 | 0.81 | 0.10 | 45 | 1034.2 |
| 20260507181717 | 7 | 264 | 8.0 | 16.1 | 0.00 | 0.81 | 0.10 | 45 | 1034.4 |
| 20260507181003 | 6 | 253 | 6.4 | 14.5 | 0.00 | 0.81 | 0.10 | 49 | 1034.3 |
| 20260507180503 | 6 | 258 | 8.0 | 16.1 | 0.00 | 0.81 | 0.10 | 48 | 1034.4 |
| 20260507180221 | 6 | 261 | 8.0 | 16.1 | 0.00 | 0.81 | 0.10 | 49 | 1034.4 |
| 20260507175503 | 6 | 258 | 8.0 | 17.7 | 0.03 | 0.81 | 0.10 | 51 | 1034.5 |
| 20260507175003 | 6 | 256 | 8.0 | 17.7 | 0.03 | 0.81 | 0.10 | 52 | 1034.5 |
| 20260507174503 | 5 | 266 | 8.0 | 16.1 | 0.03 | 0.81 | 0.10 | 51 | 1034.5 |
| 20260507174003 | 5 | 266 | 8.0 | 16.1 | 0.03 | 0.81 | 0.10 | 53 | 1034.7 |
| 20260507173503 | 5 | 257 | 8.0 | 17.7 | 0.03 | 0.81 | 0.10 | 55 | 1034.7 |
| 20260507173004 | 5 | 260 | 9.7 | 17.7 | 0.03 | 0.81 | 0.10 | 54 | 1034.8 |
| 20260507172504 | 5 | 268 | 9.7 | 16.1 | 0.05 | 0.81 | 0.10 | 54 | 1034.8 |
| 20260507172003 | 5 | 281 | 8.0 | 16.1 | 0.05 | 0.81 | 0.10 | 54 | 1034.9 |
| 20260507171503 | 5 | 281 | 6.4 | 17.7 | 0.05 | 0.81 | 0.10 | 56 | 1034.9 |
| 20260507171003 | 5 | 261 | 8.0 | 17.7 | 0.08 | 0.81 | 0.10 | 57 | 1034.9 |
| 20260507170503 | 5 | 279 | 9.7 | 19.3 | 0.08 | 0.81 | 0.10 | 54 | 1034.8 |
| 20260507170217 | 5 | 297 | 9.7 | 22.5 | 0.08 | 0.81 | 0.10 | 55 | 1035.0 |
| 20260507165503 | 4 | 307 | 9.7 | 22.5 | 0.08 | 0.79 | 0.08 | 56 | 1035.1 |
| 20260507165003 | 4 | 301 | 9.7 | 22.5 | 0.08 | 0.79 | 0.08 | 57 | 1035.1 |
| 20260507164503 | 4 | 305 | 12.9 | 32.2 | 0.08 | 0.79 | 0.08 | 54 | 1035.2 |
| 20260507164003 | 3 | 299 | 12.9 | 32.2 | 0.08 | 0.79 | 0.08 | 52 | 1035.0 |
| 20260507163503 | 3 | 292 | 11.3 | 20.9 | 0.08 | 0.79 | 0.08 | 57 | 1035.1 |
| 20260507163003 | 3 | 302 | 9.7 | 19.3 | 0.08 | 0.79 | 0.08 | 54 | 1035.0 |
| 20260507162503 | 3 | 291 | 8.0 | 17.7 | 0.05 | 0.76 | 0.05 | 58 | 1035.1 |
| 20260507162003 | 3 | 276 | 9.7 | 17.7 | 0.05 | 0.76 | 0.05 | 58 | 1035.0 |
| 20260507161719 | 3 | 273 | 9.7 | 17.7 | 0.05 | 0.76 | 0.05 | 57 | 1035.1 |
| 20260507161217 | 3 | 286 | 8.0 | 16.1 | 0.03 | 0.74 | 0.03 | 57 | 1035.1 |
| 20260507160503 | 3 | 293 | 6.4 | 17.7 | 0.03 | 0.74 | 0.03 | 57 | 1035.0 |
| 20260507160003 | 3 | 287 | 9.7 | 22.5 | 0.03 | 0.74 | 0.03 | 54 | 1035.1 |
| 20260507155503 | 3 | 294 | 9.7 | 22.5 | 0.00 | 0.71 | 0.00 | 52 | 1035.0 |
| 20260507155003 | 3 | 312 | 11.3 | 20.9 | 0.00 | 0.71 | 0.00 | 52 | 1034.9 |
| 20260507154503 | 3 | 318 | 12.9 | 22.5 | 0.00 | 0.71 | 0.00 | 49 | 1035.0 |
| 20260507154003 | 3 | 307 | 9.7 | 22.5 | 0.00 | 0.71 | 0.00 | 50 | 1035.0 |
| 20260507153504 | 3 | 300 | 9.7 | 22.5 | 0.00 | 0.71 | 0.00 | 52 | 1035.0 |
| 20260507153003 | 3 | 305 | 9.7 | 22.5 | 0.00 | 0.71 | 0.00 | 51 | 1035.0 |
| 20260507152503 | 3 | 304 | 9.7 | 20.9 | 0.00 | 0.71 | 0.00 | 52 | 1035.0 |
| 20260507152003 | 2 | 305 | 9.7 | 20.9 | 0.00 | 0.71 | 0.00 | 50 | 1035.0 |
| 20260507151719 | 2 | 309 | 9.7 | 19.3 | 0.00 | 0.71 | 0.00 | 49 | 1035.0 |
| 20260507151003 | 2 | 310 | 11.3 | 22.5 | 0.00 | 0.71 | 0.00 | 51 | 1035.0 |
| 20260507150503 | 2 | 310 | 12.9 | 22.5 | 0.00 | 0.71 | 0.00 | 51 | 1035.0 |
| 20260507150003 | 2 | 311 | 14.5 | 20.9 | 0.00 | 0.71 | 0.00 | 49 | 1035.0 |
| 20260507145503 | 2 | 312 | 12.9 | 20.9 | 0.00 | 0.71 | 0.00 | 49 | 1034.9 |
| 20260507145003 | 2 | 315 | 12.9 | 22.5 | 0.00 | 0.71 | 0.00 | 50 | 1034.9 |
| 20260507144503 | 2 | 320 | 11.3 | 22.5 | 0.00 | 0.71 | 0.00 | 49 | 1034.8 |
| 20260507144003 | 1 | 320 | 9.7 | 17.7 | 0.00 | 0.71 | 0.00 | 51 | 1034.8 |
| 20260507143718 | 1 | 317 | 9.7 | 20.9 | 0.00 | 0.71 | 0.00 | 51 | 1034.9 |
| 20260507143003 | 1 | 313 | 14.5 | 25.7 | 0.00 | 0.71 | 0.00 | 51 | 1034.8 |
| 20260507142503 | 1 | 315 | 16.1 | 25.7 | 0.00 | 0.71 | 0.00 | 50 | 1034.8 |
| 20260507142217 | 1 | 313 | 16.1 | 25.7 | 0.00 | 0.71 | 0.00 | 49 | 1034.8 |
| 20260507141503 | 1 | 316 | 16.1 | 25.7 | 0.00 | 0.71 | 0.00 | 49 | 1034.8 |
| 20260507141003 | 1 | 314 | 14.5 | 25.7 | 0.00 | 0.71 | 0.00 | 49 | 1034.9 |
| 20260507140503 | 1 | 314 | 12.9 | 25.7 | 0.00 | 0.71 | 0.00 | 50 | 1034.9 |
| 20260507140003 | 1 | 315 | 11.3 | 19.3 | 0.00 | 0.71 | 0.00 | 51 | 1035.0 |
| 20260507135503 | 1 | 315 | 12.9 | 24.1 | 0.00 | 0.71 | 0.00 | 52 | 1035.1 |
| 20260507135003 | 1 | 316 | 14.5 | 24.1 | 0.00 | 0.71 | 0.00 | 51 | 1035.1 |
| 20260507134503 | 1 | 314 | 12.9 | 20.9 | 0.00 | 0.71 | 0.00 | 51 | 1035.0 |
| 20260507134003 | 0 | 311 | 11.3 | 20.9 | 0.00 | 0.71 | 0.00 | 53 | 1034.9 |
| 20260507133503 | 0 | 311 | 8.0 | 17.7 | 0.00 | 0.71 | 0.00 | 53 | 1034.8 |
| 20260507133003 | 0 | 314 | 4.8 | 12.9 | 0.00 | 0.71 | 0.00 | 54 | 1034.8 |
| 20260507132503 | 0 | 318 | 3.2 | 12.9 | 0.00 | 0.71 | 0.00 | 55 | 1034.7 |
| 20260507132003 | 1 | 316 | 6.4 | 20.9 | 0.00 | 0.71 | 0.00 | 54 | 1034.6 |
| 20260507131503 | 1 | 315 | 11.3 | 22.5 | 0.00 | 0.71 | 0.00 | 50 | 1034.6 |
| 20260507131003 | 1 | 315 | 12.9 | 22.5 | 0.00 | 0.71 | 0.00 | 50 | 1034.5 |
| 20260507130503 | 0 | 314 | 12.9 | 22.5 | 0.00 | 0.71 | 0.00 | 52 | 1034.5 |
| 20260507130220 | 0 | 314 | 12.9 | 22.5 | 0.00 | 0.71 | 0.00 | 51 | 1034.5 |
| 20260507125503 | 0 | 313 | 11.3 | 22.5 | 0.00 | 0.71 | 0.00 | 56 | 1034.4 |
| 20260507125003 | 0 | 312 | 9.7 | 19.3 | 0.00 | 0.71 | 0.00 | 55 | 1034.6 |
| 20260507124718 | 0 | 312 | 9.7 | 19.3 | 0.00 | 0.71 | 0.00 | 54 | 1034.5 |
| 20260507124003 | 0 | 311 | 8.0 | 16.1 | 0.00 | 0.71 | 0.00 | 54 | 1034.4 |
| 20260507123504 | 0 | 308 | 9.7 | 19.3 | 0.00 | 0.71 | 0.00 | 56 | 1034.4 |
| 20260507123003 | 0 | 303 | 9.7 | 19.3 | 0.00 | 0.71 | 0.00 | 57 | 1034.4 |
| 20260507122503 | -1 | 304 | 9.7 | 19.3 | 0.00 | 0.71 | 0.00 | 58 | 1034.4 |
| 20260507122003 | -1 | 309 | 9.7 | 19.3 | 0.00 | 0.71 | 0.00 | 60 | 1034.3 |
| 20260507121721 | -1 | 310 | 11.3 | 19.3 | 0.00 | 0.71 | 0.00 | 59 | 1034.3 |
| 20260507121003 | -2 | 307 | 8.0 | 16.1 | 0.00 | 0.71 | 0.00 | 62 | 1034.3 |
| 20260507120717 | -2 | 312 | 4.8 | 16.1 | 0.00 | 0.71 | 0.00 | 63 | 1034.4 |
| 20260507120004 | -2 | 334 | 3.2 | 6.4 | 0.00 | 0.71 | 0.00 | 65 | 1034.4 |
| 20260507115503 | -2 | 318 | 3.2 | 6.4 | 0.00 | 0.71 | 0.00 | 65 | 1034.4 |
| 20260507115221 | -2 | 309 | 3.2 | 6.4 | 0.00 | 0.71 | 0.00 | 63 | 1034.4 |
| 20260507114503 | -2 | 304 | 4.8 | 11.3 | 0.00 | 0.71 | 0.00 | 61 | 1034.5 |
| 20260507114003 | -1 | 302 | 6.4 | 16.1 | 0.00 | 0.71 | 0.00 | 59 | 1034.4 |
| 20260507113503 | -1 | 306 | 8.0 | 17.7 | 0.00 | 0.71 | 0.00 | 58 | 1034.4 |
| 20260507113218 | -1 | 304 | 8.0 | 17.7 | 0.00 | 0.71 | 0.00 | 59 | 1034.3 |
| 20260507112503 | -1 | 306 | 8.0 | 17.7 | 0.00 | 0.71 | 0.00 | 58 | 1034.3 |
| 20260507112003 | -1 | 302 | 8.0 | 19.3 | 0.00 | 0.71 | 0.00 | 58 | 1034.2 |
| 20260507111717 | -1 | 300 | 8.0 | 19.3 | 0.00 | 0.71 | 0.00 | 59 | 1034.2 |
| 20260507111004 | -1 | 304 | 6.4 | 22.5 | 0.00 | 0.71 | 0.00 | 61 | 1034.0 |
| 20260507110503 | -2 | 299 | 8.0 | 22.5 | 0.00 | 0.71 | 0.00 | 62 | 1034.0 |
| 20260507110003 | -1 | 305 | 8.0 | 16.1 | 0.00 | 0.71 | 0.00 | 62 | 1034.0 |
| 20260507105503 | -2 | 307 | 8.0 | 16.1 | 0.00 | 0.71 | 0.00 | 63 | 1034.0 |
| 20260507105217 | -2 | 300 | 4.8 | 16.1 | 0.00 | 0.71 | 0.00 | 64 | 1034.2 |
| 20260507104720 | -2 | 298 | 3.2 | 16.1 | 0.00 | 0.71 | 0.00 | 63 | 1034.1 |
| 20260507104003 | -1 | 308 | 6.4 | 19.3 | 0.00 | 0.71 | 0.00 | 63 | 1034.1 |
| 20260507103503 | -1 | 311 | 11.3 | 25.7 | 0.00 | 0.71 | 0.00 | 61 | 1034.1 |
| 20260507103003 | -1 | 315 | 12.9 | 25.7 | 0.00 | 0.71 | 0.00 | 60 | 1034.0 |
| 20260507102503 | -1 | 311 | 8.0 | 22.5 | 0.00 | 0.71 | 0.00 | 62 | 1034.1 |
| 20260507102003 | -2 | 287 | 4.8 | 17.7 | 0.00 | 0.71 | 0.00 | 66 | 1034.2 |
| 20260507101503 | -1 | 285 | 6.4 | 17.7 | 0.00 | 0.71 | 0.00 | 63 | 1034.2 |
| 20260507101003 | -1 | 298 | 8.0 | 19.3 | 0.00 | 0.71 | 0.00 | 64 | 1034.1 |
| 20260507100503 | -1 | 304 | 9.7 | 22.5 | 0.00 | 0.71 | 0.00 | 63 | 1034.0 |
| 20260507100003 | -1 | 299 | 9.7 | 22.5 | 0.00 | 0.71 | 0.00 | 63 | 1033.8 |
| 20260507095503 | -1 | 296 | 9.7 | 20.9 | 0.00 | 0.71 | 0.00 | 63 | 1033.8 |
| 20260507095004 | -1 | 305 | 11.3 | 22.5 | 0.00 | 0.71 | 0.00 | 62 | 1033.9 |
| 20260507094503 | -1 | 313 | 14.5 | 25.7 | 0.00 | 0.71 | 0.00 | 62 | 1033.9 |
| 20260507094003 | -1 | 316 | 16.1 | 25.7 | 0.00 | 0.71 | 0.00 | 63 | 1034.0 |
| 20260507093503 | -1 | 316 | 14.5 | 22.5 | 0.00 | 0.71 | 0.00 | 64 | 1034.0 |
| 20260507093003 | -1 | 312 | 11.3 | 19.3 | 0.00 | 0.71 | 0.00 | 66 | 1033.9 |
| 20260507092503 | -1 | 306 | 9.7 | 22.5 | 0.00 | 0.71 | 0.00 | 67 | 1033.9 |
| 20260507092004 | -1 | 307 | 11.3 | 24.1 | 0.00 | 0.71 | 0.00 | 68 | 1034.0 |
| 20260507091503 | -1 | 312 | 14.5 | 25.7 | 0.00 | 0.71 | 0.00 | 67 | 1034.0 |
| 20260507091003 | -1 | 315 | 14.5 | 29.0 | 0.00 | 0.71 | 0.00 | 67 | 1034.0 |
| 20260507090503 | -1 | 314 | 16.1 | 32.2 | 0.00 | 0.71 | 0.00 | 67 | 1034.0 |
| 20260507090004 | -1 | 313 | 17.7 | 32.2 | 0.00 | 0.71 | 0.00 | 69 | 1034.0 |
| 20260507085503 | -1 | 315 | 19.3 | 35.4 | 0.00 | 0.71 | 0.00 | 68 | 1033.9 |
| 20260507085003 | -1 | 316 | 19.3 | 35.4 | 0.00 | 0.71 | 0.00 | 69 | 1034.0 |
| 20260507084503 | -2 | 314 | 19.3 | 29.0 | 0.00 | 0.71 | 0.00 | 69 | 1034.0 |
| 20260507084003 | -1 | 313 | 20.9 | 30.6 | 0.00 | 0.71 | 0.00 | 70 | 1034.1 |
| 20260507083717 | -1 | 312 | 19.3 | 30.6 | 0.00 | 0.71 | 0.00 | 70 | 1034.0 |
| 20260507083004 | -2 | 314 | 17.7 | 32.2 | 0.00 | 0.71 | 0.00 | 72 | 1034.1 |
| 20260507082503 | -2 | 314 | 16.1 | 32.2 | 0.00 | 0.71 | 0.00 | 71 | 1034.0 |
| 20260507082221 | -2 | 314 | 14.5 | 29.0 | 0.00 | 0.71 | 0.00 | 71 | 1034.0 |
| 20260507081503 | -2 | 314 | 12.9 | 29.0 | 0.00 | 0.71 | 0.00 | 72 | 1034.1 |
| 20260507081217 | -1 | 313 | 12.9 | 29.0 | 0.00 | 0.71 | 0.00 | 71 | 1034.2 |
| 20260507080503 | -1 | 313 | 16.1 | 30.6 | 0.00 | 0.71 | 0.00 | 71 | 1034.2 |
| 20260507080003 | -1 | 315 | 17.7 | 30.6 | 0.00 | 0.71 | 0.00 | 70 | 1034.0 |
| 20260507075503 | -1 | 315 | 19.3 | 33.8 | 0.00 | 0.71 | 0.00 | 71 | 1033.9 |
| 20260507075003 | -1 | 317 | 19.3 | 33.8 | 0.00 | 0.71 | 0.00 | 71 | 1033.7 |
| 20260507074503 | -1 | 318 | 19.3 | 33.8 | 0.00 | 0.71 | 0.00 | 71 | 1033.8 |
| 20260507074004 | -1 | 316 | 19.3 | 30.6 | 0.00 | 0.71 | 0.00 | 71 | 1033.7 |
| 20260507073503 | -1 | 315 | 19.3 | 30.6 | 0.00 | 0.71 | 0.00 | 72 | 1033.8 |
| 20260507073003 | -1 | 316 | 19.3 | 30.6 | 0.00 | 0.71 | 0.00 | 72 | 1033.7 |
| 20260507072503 | -1 | 316 | 19.3 | 35.4 | 0.00 | 0.71 | 0.00 | 72 | 1033.8 |
| 20260507072003 | -1 | 317 | 20.9 | 35.4 | 0.00 | 0.71 | 0.00 | 73 | 1033.9 |
| 20260507071720 | -1 | 315 | 20.9 | 35.4 | 0.00 | 0.71 | 0.00 | 72 | 1034.0 |
| 20260507071003 | -1 | 313 | 19.3 | 29.0 | 0.00 | 0.71 | 0.00 | 75 | 1034.0 |
| 20260507070503 | -1 | 315 | 19.3 | 29.0 | 0.00 | 0.71 | 0.00 | 75 | 1034.0 |
| 20260507070006 | -1 | 317 | 19.3 | 29.0 | 0.00 | 0.71 | 0.00 | 76 | 1034.1 |
| 20260507065503 | -1 | 318 | 19.3 | 32.2 | 0.00 | 0.71 | 0.00 | 77 | 1034.2 |
| 20260507065003 | -1 | 316 | 19.3 | 32.2 | 0.00 | 0.71 | 0.00 | 77 | 1034.1 |
| 20260507064504 | -1 | 315 | 17.7 | 29.0 | 0.00 | 0.71 | 0.00 | 78 | 1034.2 |
| 20260507064220 | -1 | 313 | 17.7 | 29.0 | 0.00 | 0.71 | 0.00 | 78 | 1034.1 |
| 20260507063503 | -1 | 311 | 16.1 | 32.2 | 0.00 | 0.71 | 0.00 | 79 | 1034.2 |
| 20260507063221 | -1 | 309 | 16.1 | 32.2 | 0.00 | 0.71 | 0.00 | 78 | 1034.3 |
| 20260507062504 | -1 | 307 | 17.7 | 30.6 | 0.00 | 0.71 | 0.00 | 81 | 1034.1 |
| 20260507062003 | -1 | 311 | 16.1 | 30.6 | 0.00 | 0.71 | 0.00 | 80 | 1034.2 |
| 20260507061503 | -1 | 309 | 14.5 | 33.8 | 0.00 | 0.71 | 0.00 | 82 | 1033.9 |
| 20260507061218 | -1 | 306 | 14.5 | 33.8 | 0.00 | 0.71 | 0.00 | 81 | 1034.0 |
| 20260507060503 | -1 | 302 | 17.7 | 30.6 | 0.00 | 0.71 | 0.00 | 81 | 1034.0 |
| 20260507060004 | -1 | 304 | 17.7 | 30.6 | 0.00 | 0.71 | 0.00 | 81 | 1033.8 |
| 20260507055503 | -1 | 303 | 16.1 | 33.8 | 0.00 | 0.71 | 0.71 | 82 | 1033.7 |
| 20260507055003 | -1 | 305 | 17.7 | 33.8 | 0.00 | 0.71 | 0.71 | 82 | 1033.5 |
| 20260507054503 | -1 | 301 | 17.7 | 33.8 | 0.00 | 0.71 | 0.71 | 82 | 1033.4 |
| 20260507054004 | -2 | 297 | 17.7 | 32.2 | 0.00 | 0.71 | 0.71 | 82 | 1033.3 |
| 20260507053503 | -1 | 301 | 19.3 | 32.2 | 0.00 | 0.71 | 0.71 | 83 | 1033.3 |
| 20260507053004 | -2 | 308 | 17.7 | 35.4 | 0.00 | 0.71 | 0.71 | 83 | 1033.3 |
| 20260507052504 | -2 | 307 | 16.1 | 35.4 | 0.00 | 0.71 | 0.71 | 83 | 1033.3 |
| 20260507052003 | -2 | 305 | 17.7 | 37.0 | 0.00 | 0.71 | 0.71 | 84 | 1033.2 |
| 20260507051503 | -1 | 303 | 16.1 | 37.0 | 0.00 | 0.71 | 0.71 | 84 | 1033.2 |
| 20260507051004 | -2 | 301 | 14.5 | 30.6 | 0.00 | 0.71 | 0.71 | 85 | 1033.1 |
| 20260507050503 | -2 | 305 | 14.5 | 25.7 | 0.00 | 0.71 | 0.71 | 85 | 1033.2 |
| 20260507050003 | -2 | 305 | 12.9 | 25.7 | 0.00 | 0.71 | 0.71 | 86 | 1033.2 |
| 20260507045503 | -2 | 305 | 12.9 | 30.6 | 0.00 | 0.71 | 0.71 | 87 | 1033.1 |
| 20260507045003 | -1 | 302 | 12.9 | 30.6 | 0.00 | 0.71 | 0.71 | 86 | 1033.3 |
| 20260507044503 | -2 | 300 | 14.5 | 29.0 | 0.00 | 0.71 | 0.71 | 87 | 1033.3 |
| 20260507044221 | -1 | 299 | 14.5 | 29.0 | 0.00 | 0.71 | 0.71 | 87 | 1033.2 |
| 20260507043503 | -2 | 298 | 11.3 | 24.1 | 0.00 | 0.71 | 0.71 | 88 | 1033.0 |
| 20260507043003 | -2 | 293 | 9.7 | 20.9 | 0.00 | 0.71 | 0.71 | 88 | 1033.2 |
| 20260507042503 | -2 | 293 | 9.7 | 29.0 | 0.00 | 0.71 | 0.71 | 88 | 1033.1 |
| 20260507042003 | -2 | 287 | 9.7 | 29.0 | 0.00 | 0.71 | 0.71 | 88 | 1033.1 |
| 20260507041503 | -2 | 296 | 11.3 | 29.0 | 0.00 | 0.71 | 0.71 | 88 | 1033.1 |
| 20260507041003 | -2 | 301 | 9.7 | 29.0 | 0.00 | 0.71 | 0.71 | 89 | 1033.2 |
| 20260507040503 | -2 | 303 | 8.0 | 20.9 | 0.00 | 0.71 | 0.71 | 90 | 1033.1 |
| 20260507040003 | -2 | 313 | 6.4 | 20.9 | 0.00 | 0.71 | 0.71 | 91 | 1033.1 |
| 20260507035503 | -3 | 307 | 3.2 | 8.0 | 0.00 | 0.71 | 0.71 | 91 | 1033.0 |
| 20260507035003 | -3 | 318 | 1.6 | 6.4 | 0.00 | 0.71 | 0.71 | 91 | 1032.9 |
| 20260507034503 | -3 | 292 | 1.6 | 4.8 | 0.00 | 0.71 | 0.71 | 91 | 1033.1 |
| 20260507034217 | -3 | 266 | 1.6 | 4.8 | 0.00 | 0.71 | 0.71 | 91 | 1033.0 |